createdAt,value
2019-04-04T00:01:35.762Z,49.80
2019-04-04T00:04:04.350Z,49.90
2019-04-04T00:06:32.633Z,50.00
2019-04-04T00:09:01.991Z,50.00
2019-04-04T00:11:31.022Z,50.20
2019-04-04T00:13:59.398Z,49.90
2019-04-04T00:16:27.984Z,49.70
2019-04-04T00:18:58.470Z,49.70
2019-04-04T00:21:27.934Z,49.80
2019-04-04T00:23:56.260Z,49.70
2019-04-04T00:26:24.547Z,49.70
2019-04-04T00:28:53.160Z,49.90
2019-04-04T00:31:21.764Z,49.80
2019-04-04T00:33:50.427Z,49.80
2019-04-04T00:36:18.804Z,49.80
2019-04-04T00:38:47.385Z,49.90
2019-04-04T00:41:15.975Z,49.80
2019-04-04T00:43:44.264Z,49.80
2019-04-04T00:46:12.831Z,49.90
2019-04-04T00:48:41.446Z,49.90
2019-04-04T00:51:10.101Z,49.80
2019-04-04T00:53:38.378Z,49.90
2019-04-04T00:56:06.682Z,49.90
2019-04-04T00:58:34.971Z,50.00
2019-04-04T01:01:03.827Z,50.00
2019-04-04T01:03:32.418Z,50.00
2019-04-04T01:06:02.673Z,49.90
2019-04-04T01:08:30.727Z,50.00
2019-04-04T01:10:59.034Z,50.10
2019-04-04T01:13:27.778Z,50.00
2019-04-04T01:15:56.450Z,50.00
2019-04-04T01:18:24.766Z,50.10
2019-04-04T01:20:53.042Z,50.10
2019-04-04T01:23:21.332Z,50.10
2019-04-04T01:25:49.711Z,50.10
2019-04-04T01:28:18.347Z,50.00
2019-04-04T01:30:46.626Z,50.10
2019-04-04T01:33:15.208Z,50.10
2019-04-04T01:35:43.515Z,50.10
2019-04-04T01:38:12.071Z,50.10
2019-04-04T01:40:40.356Z,50.10
2019-04-04T01:43:09.346Z,50.10
2019-04-04T01:45:38.640Z,50.10
2019-04-04T01:48:07.039Z,50.20
2019-04-04T01:50:35.566Z,50.30
2019-04-04T01:53:03.902Z,50.40
2019-04-04T01:55:32.943Z,50.60
2019-04-04T01:58:02.572Z,50.40
2019-04-04T02:00:31.182Z,50.40
2019-04-04T02:02:59.574Z,50.40
2019-04-04T02:05:27.874Z,50.40
2019-04-04T02:07:56.228Z,50.40
2019-04-04T02:10:24.783Z,50.50
2019-04-04T02:12:53.368Z,50.60
2019-04-04T02:15:21.666Z,50.40
2019-04-04T02:17:52.660Z,50.50
2019-04-04T02:20:20.546Z,50.90
2019-04-04T02:22:48.850Z,50.70
2019-04-04T02:25:19.996Z,50.70
2019-04-04T02:27:48.331Z,50.80
2019-04-04T02:30:16.655Z,50.90
2019-04-04T02:32:45.419Z,50.90
2019-04-04T02:35:13.719Z,50.70
2019-04-04T02:37:42.008Z,50.70
2019-04-04T02:40:10.594Z,51.40
2019-04-04T02:42:39.231Z,50.80
2019-04-04T02:45:07.819Z,50.80
2019-04-04T02:47:36.404Z,50.80
2019-04-04T02:50:07.018Z,50.70
2019-04-04T02:52:35.728Z,50.80
2019-04-04T02:55:05.048Z,50.80
2019-04-04T02:57:33.712Z,50.60
2019-04-04T03:00:01.993Z,50.90
2019-04-04T03:02:30.306Z,50.70
2019-04-04T03:04:58.597Z,50.90
2019-04-04T03:07:29.828Z,50.80
2019-04-04T03:09:57.284Z,50.80
2019-04-04T03:12:26.796Z,50.80
2019-04-04T03:14:55.311Z,50.80
2019-04-04T03:17:23.649Z,50.70
2019-04-04T03:19:51.940Z,50.80
2019-04-04T03:22:20.235Z,50.70
2019-04-04T03:24:48.586Z,50.60
2019-04-04T03:27:16.893Z,51.40
2019-04-04T03:29:46.814Z,50.80
2019-04-04T03:32:16.775Z,50.80
2019-04-04T03:34:50.166Z,50.80
2019-04-04T03:37:15.476Z,50.80
2019-04-04T03:39:45.453Z,50.70
2019-04-04T03:42:13.779Z,50.70
2019-04-04T03:44:42.340Z,50.80
2019-04-04T03:47:11.392Z,50.80
2019-04-04T03:49:40.115Z,50.80
2019-04-04T03:52:11.180Z,50.90
2019-04-04T03:54:38.655Z,50.90
2019-04-04T03:57:11.104Z,50.90
2019-04-04T03:59:36.973Z,50.70
2019-04-04T04:02:05.604Z,50.80
2019-04-04T04:04:33.981Z,50.20
2019-04-04T04:07:02.290Z,50.90
2019-04-04T04:09:30.831Z,50.90
2019-04-04T04:11:59.122Z,50.90
2019-04-04T04:14:27.691Z,50.90
2019-04-04T04:16:55.969Z,50.90
2019-04-04T04:19:27.453Z,51.00
2019-04-04T04:21:54.313Z,51.00
2019-04-04T04:24:22.595Z,51.00
2019-04-04T04:26:51.219Z,50.90
2019-04-04T04:29:19.806Z,51.10
2019-04-04T04:31:49.288Z,51.00
2019-04-04T04:34:18.204Z,51.00
2019-04-04T04:36:48.010Z,51.80
2019-04-04T04:39:16.512Z,51.00
2019-04-04T04:41:44.825Z,50.90
2019-04-04T04:44:13.262Z,50.90
2019-04-04T04:46:41.576Z,50.90
2019-04-04T04:49:10.218Z,50.80
2019-04-04T04:51:38.795Z,50.80
2019-04-04T04:54:07.324Z,50.90
2019-04-04T04:56:35.614Z,51.10
2019-04-04T04:59:04.247Z,51.00
2019-04-04T05:01:32.598Z,51.10
2019-04-04T05:04:02.526Z,50.80
2019-04-04T05:06:35.367Z,50.70
2019-04-04T05:09:01.963Z,51.00
2019-04-04T05:11:30.546Z,50.80
2019-04-04T05:13:58.902Z,50.80
2019-04-04T05:16:27.201Z,50.80
2019-04-04T05:18:55.785Z,50.80
2019-04-04T05:21:25.547Z,51.00
2019-04-04T05:23:54.163Z,50.90
2019-04-04T05:26:22.867Z,50.90
2019-04-04T05:28:51.178Z,50.60
2019-04-04T05:31:19.519Z,50.40
2019-04-04T05:33:48.119Z,50.20
2019-04-04T05:36:16.417Z,50.10
2019-04-04T05:38:47.154Z,50.00
2019-04-04T05:41:16.397Z,49.90
2019-04-04T05:43:45.058Z,50.30
2019-04-04T05:46:13.420Z,49.70
2019-04-04T05:48:41.693Z,49.70
2019-04-04T05:51:09.988Z,49.60
2019-04-04T05:53:38.298Z,49.50
2019-04-04T05:56:06.909Z,49.40
2019-04-04T05:58:35.585Z,49.40
2019-04-04T06:01:05.334Z,49.40
2019-04-04T06:03:33.980Z,50.00
2019-04-04T06:06:02.586Z,49.10
2019-04-04T06:08:30.931Z,49.00
2019-04-04T06:10:59.564Z,49.10
2019-04-04T06:13:27.945Z,49.00
2019-04-04T06:15:56.225Z,49.00
2019-04-04T06:18:25.772Z,49.00
2019-04-04T06:20:54.055Z,49.00
2019-04-04T06:23:23.081Z,49.20
2019-04-04T06:25:52.379Z,49.00
2019-04-04T06:28:20.951Z,49.20
2019-04-04T06:30:49.256Z,49.40
2019-04-04T06:33:17.620Z,49.40
2019-04-04T06:35:47.914Z,49.30
2019-04-04T06:38:16.193Z,49.30
2019-04-04T06:40:44.795Z,49.40
2019-04-04T06:43:13.367Z,49.20
2019-04-04T06:45:41.653Z,49.00
2019-04-04T06:48:09.946Z,49.00
2019-04-04T06:50:40.082Z,49.10
2019-04-04T06:53:08.281Z,49.00
2019-04-04T06:55:39.926Z,49.00
2019-04-04T06:58:09.437Z,49.00
2019-04-04T07:00:36.943Z,48.90
2019-04-04T07:03:05.234Z,48.80
2019-04-04T07:05:33.913Z,48.60
2019-04-04T07:08:02.203Z,48.40
2019-04-04T07:10:30.575Z,48.30
2019-04-04T07:13:14.587Z,48.20
2019-04-04T07:15:29.259Z,48.60
2019-04-04T07:17:57.835Z,48.50
2019-04-04T07:20:28.383Z,48.40
2019-04-04T07:22:56.441Z,48.30
2019-04-04T07:25:25.017Z,48.50
2019-04-04T07:27:53.302Z,48.60
2019-04-04T07:30:21.606Z,48.30
2019-04-04T07:32:49.905Z,48.20
2019-04-04T07:35:20.930Z,48.30
2019-04-04T07:37:48.568Z,48.50
2019-04-04T07:40:16.864Z,48.20
2019-04-04T07:42:47.989Z,48.80
2019-04-04T07:45:15.181Z,49.20
2019-04-04T07:47:46.646Z,49.50
2019-04-04T07:50:13.576Z,49.30
2019-04-04T07:52:41.874Z,49.50
2019-04-04T07:55:10.998Z,49.50
2019-04-04T07:57:39.432Z,49.50
2019-04-04T08:00:08.480Z,49.50
2019-04-04T08:02:36.811Z,49.10
2019-04-04T08:05:07.879Z,48.90
2019-04-04T08:07:36.474Z,48.40
2019-04-04T08:10:06.259Z,48.20
2019-04-04T08:12:34.870Z,47.80
2019-04-04T08:15:03.786Z,48.30
2019-04-04T08:17:32.081Z,48.10
2019-04-04T08:20:00.452Z,48.20
2019-04-04T08:22:28.823Z,48.40
2019-04-04T08:24:57.101Z,48.40
2019-04-04T08:27:25.408Z,48.30
2019-04-04T08:29:53.690Z,48.20
2019-04-04T08:32:21.987Z,48.30
2019-04-04T08:34:50.378Z,48.00
2019-04-04T08:37:18.965Z,48.40
2019-04-04T08:39:47.563Z,48.20
2019-04-04T08:42:15.843Z,48.20
2019-04-04T08:44:44.146Z,48.30
2019-04-04T08:47:12.785Z,48.30
2019-04-04T08:49:41.094Z,48.30
2019-04-04T08:52:16.578Z,48.30
2019-04-04T08:54:39.932Z,48.30
2019-04-04T08:57:08.558Z,48.50
2019-04-04T08:59:37.098Z,48.40
2019-04-04T09:02:05.434Z,48.20
2019-04-04T09:04:34.002Z,48.50
2019-04-04T09:07:02.298Z,48.50
2019-04-04T09:09:31.215Z,48.70
2019-04-04T09:12:01.191Z,48.50
2019-04-04T09:14:29.491Z,48.50
2019-04-04T09:16:57.777Z,48.50
2019-04-04T09:19:26.427Z,48.20
2019-04-04T09:21:55.009Z,48.30
2019-04-04T09:24:23.294Z,48.10
2019-04-04T09:26:51.870Z,48.10
2019-04-04T09:29:20.158Z,47.70
2019-04-04T09:31:48.480Z,47.50
2019-04-04T09:34:17.111Z,47.40
2019-04-04T09:36:45.390Z,47.40
2019-04-04T09:39:13.693Z,47.20
2019-04-04T09:41:42.008Z,47.20
2019-04-04T09:44:10.307Z,47.20
2019-04-04T09:46:38.843Z,47.40
2019-04-04T09:49:07.490Z,47.60
2019-04-04T09:51:36.067Z,47.70
2019-04-04T09:54:04.350Z,47.80
2019-04-04T09:56:32.934Z,47.80
2019-04-04T09:59:01.231Z,47.90
2019-04-04T10:01:29.907Z,48.10
2019-04-04T10:03:58.579Z,48.10
2019-04-04T10:06:27.167Z,48.10
2019-04-04T10:08:55.450Z,48.30
2019-04-04T10:11:24.036Z,48.30
2019-04-04T10:13:52.606Z,48.30
2019-04-04T10:16:20.908Z,48.50
2019-04-04T10:18:49.192Z,48.30
2019-04-04T10:21:17.491Z,48.20
2019-04-04T10:23:45.778Z,48.00
2019-04-04T10:26:14.100Z,47.80
2019-04-04T10:28:42.686Z,47.60
2019-04-04T10:31:10.998Z,47.60
2019-04-04T10:33:42.091Z,47.60
2019-04-04T10:36:09.310Z,48.10
2019-04-04T10:38:37.614Z,48.10
2019-04-04T10:41:05.920Z,48.50
2019-04-04T10:43:34.570Z,48.50
2019-04-04T10:48:45.286Z,48.30
2019-04-04T10:51:13.838Z,48.50
2019-04-04T10:53:42.463Z,48.40
2019-04-04T10:56:11.034Z,48.40
2019-04-04T10:58:39.314Z,48.40
2019-04-04T11:01:07.890Z,48.40
2019-04-04T11:03:36.206Z,48.30
2019-04-04T11:06:04.841Z,48.30
2019-04-04T11:08:33.611Z,48.20
2019-04-04T11:11:02.183Z,48.30
2019-04-04T11:13:33.662Z,48.40
2019-04-04T11:16:00.838Z,48.40
2019-04-04T11:18:29.118Z,48.30
2019-04-04T11:20:57.441Z,48.30
2019-04-04T11:23:25.733Z,48.30
2019-04-04T11:25:54.024Z,48.40
2019-04-04T11:28:22.335Z,48.40
2019-04-04T11:30:52.037Z,48.40
2019-04-04T11:33:20.387Z,48.30
2019-04-04T11:35:48.929Z,48.30
2019-04-04T11:38:17.566Z,48.20
2019-04-04T11:40:45.890Z,48.40
2019-04-04T11:43:14.170Z,48.50
2019-04-04T11:45:42.458Z,48.60
2019-04-04T11:48:10.817Z,48.60
2019-04-04T11:50:39.923Z,48.70
2019-04-04T11:53:08.859Z,48.60
2019-04-04T11:55:37.189Z,48.90
2019-04-04T11:58:05.488Z,48.90
2019-04-04T12:00:38.812Z,49.00
2019-04-04T12:03:07.398Z,49.30
2019-04-04T12:05:38.739Z,50.00
2019-04-04T12:08:07.145Z,50.00
2019-04-04T12:10:35.542Z,50.00
2019-04-04T12:13:03.869Z,50.70
2019-04-04T12:15:32.218Z,50.40
2019-04-04T12:18:00.508Z,50.50
2019-04-04T12:20:29.218Z,50.70
2019-04-04T12:22:57.503Z,50.60
2019-04-04T12:25:26.089Z,50.60
2019-04-04T12:27:54.668Z,50.90
2019-04-04T12:30:22.975Z,51.10
2019-04-04T12:32:51.681Z,50.80
2019-04-04T12:35:20.085Z,50.90
2019-04-04T12:37:48.395Z,51.00
2019-04-04T12:40:20.860Z,50.90
2019-04-04T12:42:47.105Z,51.10
2019-04-04T12:45:15.883Z,51.50
2019-04-04T12:47:44.450Z,51.20
2019-04-04T12:50:13.903Z,51.00
2019-04-04T12:52:42.542Z,51.00
2019-04-04T12:55:11.144Z,51.30
2019-04-04T12:57:39.706Z,51.30
2019-04-04T13:00:08.874Z,51.70
2019-04-04T13:02:37.162Z,51.60
2019-04-04T13:05:07.949Z,51.40
2019-04-04T13:07:36.322Z,51.80
2019-04-04T13:10:11.738Z,51.90
2019-04-04T13:12:37.062Z,51.90
2019-04-04T13:15:07.499Z,51.80
2019-04-04T13:17:36.158Z,51.70
2019-04-04T13:20:06.334Z,51.40
2019-04-04T13:22:35.006Z,51.30
2019-04-04T13:25:04.662Z,51.30
2019-04-04T13:27:33.477Z,51.20
2019-04-04T13:30:01.761Z,51.20
2019-04-04T13:32:30.180Z,50.90
2019-04-04T13:34:59.824Z,50.90
2019-04-04T13:37:28.756Z,50.80
2019-04-04T13:39:57.519Z,50.70
2019-04-04T13:42:25.887Z,50.50
2019-04-04T13:44:54.163Z,50.10
2019-04-04T13:47:22.486Z,49.20
2019-04-04T13:49:51.247Z,43.40
2019-04-04T13:52:19.518Z,43.00
2019-04-04T13:54:47.821Z,42.50
2019-04-04T13:57:16.143Z,43.10
2019-04-04T13:59:44.751Z,40.90
2019-04-04T14:02:13.340Z,41.10
2019-04-04T14:04:41.920Z,40.60
2019-04-04T14:07:10.249Z,40.30
2019-04-04T14:09:38.878Z,40.20
2019-04-04T14:12:07.157Z,38.90
2019-04-04T14:14:35.484Z,37.80
2019-04-04T14:17:03.784Z,40.50
2019-04-04T14:19:32.398Z,37.50
2019-04-04T14:22:00.682Z,38.50
2019-04-04T14:24:29.260Z,38.80
2019-04-04T14:26:57.847Z,40.90
2019-04-04T14:29:27.787Z,40.40
2019-04-04T14:31:56.644Z,40.40
2019-04-04T14:34:25.225Z,41.00
2019-04-04T14:36:53.805Z,40.90
2019-04-04T14:39:34.819Z,40.80
2019-04-04T14:42:03.187Z,41.00
2019-04-04T14:44:31.527Z,42.40
2019-04-04T14:47:00.127Z,42.20
2019-04-04T14:49:28.719Z,43.50
2019-04-04T14:51:56.997Z,45.30
2019-04-04T14:54:29.045Z,44.50
2019-04-04T14:56:55.294Z,43.90
2019-04-04T14:59:23.583Z,44.20
2019-04-04T15:01:51.876Z,45.00
2019-04-04T15:04:21.026Z,45.30
2019-04-04T15:06:49.731Z,45.60
2019-04-04T15:09:18.307Z,45.20
2019-04-04T15:11:46.824Z,45.20
2019-04-04T15:14:15.188Z,45.00
2019-04-04T15:16:43.606Z,45.00
2019-04-04T15:19:11.985Z,45.30
2019-04-04T15:21:40.304Z,45.30
2019-04-04T15:24:09.017Z,45.20
2019-04-04T15:26:37.895Z,45.40
2019-04-04T15:29:06.473Z,45.60
2019-04-04T15:31:35.592Z,45.20
2019-04-04T15:34:04.378Z,45.70
2019-04-04T15:36:33.061Z,45.50
2019-04-04T15:39:01.831Z,45.70
2019-04-04T15:41:36.743Z,45.80
2019-04-04T15:44:00.562Z,45.90
2019-04-04T15:46:29.214Z,46.00
2019-04-04T15:48:57.524Z,45.80
2019-04-04T15:51:26.175Z,45.70
2019-04-04T15:53:54.759Z,45.60
2019-04-04T15:56:23.355Z,45.30
2019-04-04T15:58:51.630Z,45.30
2019-04-04T16:01:20.301Z,46.00
2019-04-04T16:03:48.911Z,45.30
2019-04-04T16:06:17.320Z,45.40
2019-04-04T16:08:45.758Z,45.50
2019-04-04T16:11:14.343Z,45.50
2019-04-04T16:13:43.128Z,45.40
2019-04-04T16:16:11.423Z,45.60
2019-04-04T16:18:39.747Z,45.80
2019-04-04T16:21:08.476Z,45.90
2019-04-04T16:23:37.789Z,45.90
2019-04-04T16:26:06.466Z,46.20
2019-04-04T16:28:35.134Z,46.10
2019-04-04T16:31:03.879Z,46.20
2019-04-04T16:33:33.000Z,46.10
2019-04-04T16:36:01.771Z,46.10
2019-04-04T16:38:30.514Z,46.40
2019-04-04T16:41:00.510Z,46.60
2019-04-04T16:43:29.911Z,46.90
2019-04-04T16:45:58.271Z,47.20
2019-04-04T16:48:26.666Z,47.00
2019-04-04T16:50:54.950Z,47.00
2019-04-04T16:53:24.575Z,47.00
2019-04-04T16:55:52.864Z,46.90
2019-04-04T16:58:21.524Z,47.10
2019-04-04T17:00:50.310Z,47.30
2019-04-04T17:03:19.246Z,47.10
2019-04-04T17:05:47.721Z,46.90
2019-04-04T17:08:16.023Z,47.20
2019-04-04T17:10:44.862Z,46.30
2019-04-04T17:13:14.527Z,46.30
2019-04-04T17:15:43.268Z,46.20
2019-04-04T17:18:12.340Z,46.30
2019-04-04T17:20:40.814Z,46.40
2019-04-04T17:23:09.361Z,46.70
2019-04-04T17:25:38.203Z,46.70
2019-04-04T17:28:06.877Z,46.90
2019-04-04T17:30:35.853Z,46.90
2019-04-04T17:33:06.317Z,46.80
2019-04-04T17:35:34.872Z,46.40
2019-04-04T17:38:03.869Z,46.40
2019-04-04T17:40:32.383Z,47.10
2019-04-04T17:43:01.245Z,46.90
2019-04-04T17:45:30.061Z,46.80
2019-04-04T17:47:59.132Z,46.50
2019-04-04T17:50:27.818Z,46.90
2019-04-04T17:52:56.121Z,47.10
2019-04-04T17:55:24.469Z,47.30
2019-04-04T17:57:53.159Z,47.50
2019-04-04T18:00:22.129Z,48.00
2019-04-04T18:02:50.958Z,48.40
2019-04-04T18:05:19.337Z,49.10
2019-04-04T18:07:47.711Z,50.10
2019-04-04T18:10:16.100Z,50.40
2019-04-04T18:12:44.771Z,50.90
2019-04-04T18:15:13.065Z,50.70
2019-04-04T18:17:41.375Z,50.40
2019-04-04T18:20:10.046Z,50.80
2019-04-04T18:22:39.681Z,50.60
2019-04-04T18:25:08.868Z,50.60
2019-04-04T18:27:37.171Z,50.40
2019-04-04T18:30:09.062Z,50.60
2019-04-04T18:32:40.205Z,50.70
2019-04-04T18:35:08.604Z,50.50
2019-04-04T18:37:37.126Z,50.40
2019-04-04T18:40:07.706Z,50.30
2019-04-04T18:42:37.729Z,50.20
2019-04-04T18:45:06.734Z,49.70
2019-04-04T18:47:35.294Z,49.70
2019-04-04T18:50:04.475Z,49.70
2019-04-04T18:52:32.784Z,49.70
2019-04-04T18:55:01.476Z,49.60
2019-04-04T18:57:29.876Z,49.20
2019-04-04T18:59:58.199Z,48.90
2019-04-04T19:02:26.582Z,48.90
2019-04-04T19:04:55.942Z,49.10
2019-04-04T19:07:24.522Z,48.80
2019-04-04T19:09:52.898Z,48.70
2019-04-04T19:12:24.522Z,48.80
2019-04-04T19:14:52.879Z,48.60
2019-04-04T19:17:21.581Z,49.00
2019-04-04T19:19:50.151Z,48.90
2019-04-04T19:22:20.415Z,48.80
2019-04-04T19:24:48.821Z,48.50
2019-04-04T19:27:17.218Z,48.00
2019-04-04T19:29:45.930Z,47.80
2019-04-04T19:32:14.767Z,47.80
2019-04-04T19:34:43.808Z,48.00
2019-04-04T19:37:12.696Z,48.00
2019-04-04T19:39:41.282Z,48.00
2019-04-04T19:42:09.883Z,48.10
2019-04-04T19:44:38.640Z,48.40
2019-04-04T19:47:07.448Z,48.40
2019-04-04T19:49:36.028Z,48.50
2019-04-04T19:52:04.963Z,48.50
2019-04-04T19:54:33.624Z,48.30
2019-04-04T19:57:02.248Z,48.30
2019-04-04T19:59:30.631Z,48.30
2019-04-04T20:01:59.378Z,48.30
2019-04-04T20:04:27.695Z,48.40
2019-04-04T20:06:56.326Z,48.40
2019-04-04T20:09:24.635Z,48.50
2019-04-04T20:11:52.945Z,48.50
2019-04-04T20:14:21.791Z,48.30
2019-04-04T20:16:50.460Z,48.30
2019-04-04T20:19:18.758Z,48.30
2019-04-04T20:21:47.093Z,48.20
2019-04-04T20:24:15.388Z,48.30
2019-04-04T20:26:44.089Z,48.20
2019-04-04T20:29:12.641Z,48.00
2019-04-04T20:31:41.362Z,47.90
2019-04-04T20:34:11.425Z,48.00
2019-04-04T20:36:39.775Z,48.10
2019-04-04T20:39:08.595Z,48.40
2019-04-04T20:41:38.993Z,48.20
2019-04-04T20:44:07.551Z,48.00
2019-04-04T20:46:36.261Z,47.70
2019-04-04T20:49:04.917Z,47.20
2019-04-04T20:51:33.831Z,46.90
2019-04-04T20:54:02.902Z,47.00
2019-04-04T20:56:31.778Z,47.10
2019-04-04T20:59:00.156Z,47.10
2019-04-04T21:01:31.693Z,47.20
2019-04-04T21:04:00.303Z,47.30
2019-04-04T21:06:29.280Z,47.50
2019-04-04T21:08:58.622Z,47.60
2019-04-04T21:11:27.171Z,47.50
2019-04-04T21:13:56.723Z,47.60
2019-04-04T21:16:25.251Z,47.60
2019-04-04T21:18:53.574Z,47.90
2019-04-04T21:21:22.231Z,48.00
2019-04-04T21:23:50.525Z,47.90
2019-04-04T21:26:19.175Z,48.00
2019-04-04T21:28:47.766Z,48.10
2019-04-04T21:31:16.062Z,48.00
2019-04-04T21:33:44.349Z,48.00
2019-04-04T21:36:13.006Z,47.90
2019-04-04T21:38:41.803Z,47.90
2019-04-04T21:41:10.107Z,47.90
2019-04-04T21:43:38.401Z,47.90
2019-04-04T21:46:26.390Z,47.90
2019-04-04T21:48:54.676Z,47.80
2019-04-04T21:51:23.243Z,48.00
2019-04-04T21:53:51.529Z,48.10
2019-04-04T21:56:19.823Z,48.20
2019-04-04T21:58:48.222Z,48.10
2019-04-04T22:01:16.692Z,48.10
2019-04-04T22:03:44.971Z,48.10
2019-04-04T22:06:13.621Z,48.10
2019-04-04T22:08:41.923Z,48.10
2019-04-04T22:11:10.478Z,48.00
2019-04-04T22:13:38.765Z,47.90
2019-04-04T22:16:07.081Z,47.70
2019-04-04T22:18:35.411Z,48.00
2019-04-04T22:21:04.104Z,47.90
2019-04-04T22:23:32.396Z,47.80
2019-04-04T22:26:00.974Z,47.90
2019-04-04T22:28:29.542Z,48.00
2019-04-04T22:30:58.126Z,48.10
2019-04-04T22:33:26.415Z,48.10
2019-04-04T22:35:54.797Z,48.10
2019-04-04T22:38:23.672Z,48.20
2019-04-04T22:40:51.972Z,48.10
2019-04-04T22:43:20.277Z,48.20
2019-04-04T22:45:48.593Z,48.20
2019-04-04T22:48:19.972Z,48.20
2019-04-04T22:50:48.248Z,48.30
2019-04-04T22:53:16.546Z,48.30
2019-04-04T22:55:44.841Z,48.40
2019-04-04T22:58:13.474Z,48.40
2019-04-04T23:00:41.842Z,48.40
2019-04-04T23:03:10.645Z,48.20
2019-04-04T23:05:39.430Z,46.30
2019-04-04T23:08:07.788Z,45.80
2019-04-04T23:10:36.390Z,47.30
2019-04-04T23:13:04.977Z,47.30
2019-04-04T23:15:33.379Z,47.50
2019-04-04T23:18:01.944Z,47.30
2019-04-04T23:20:30.244Z,47.10
2019-04-04T23:23:01.063Z,46.80
2019-04-04T23:25:28.818Z,46.80
2019-04-04T23:27:58.715Z,46.60
2019-04-04T23:30:27.094Z,46.50
2019-04-04T23:32:55.412Z,45.90
2019-04-04T23:35:23.972Z,45.50
2019-04-04T23:37:52.656Z,45.90
2019-04-04T23:40:21.349Z,46.30
2019-04-04T23:42:49.705Z,46.50
2019-04-04T23:45:18.003Z,46.60
2019-04-04T23:47:46.297Z,46.60
2019-04-04T23:50:14.590Z,46.50
2019-04-04T23:52:42.892Z,46.40
2019-04-04T23:55:11.507Z,46.40
2019-04-04T23:57:39.785Z,46.80
